EA4DB Madrid ES current weather conditions

sailwx.info

Wind from 315 at 4 knots gusting 7

Air temperature 21.7° C
Dewpoint 13.0° C

Last reported at 2016-Jun-25 23:50 UTC.
Time now 2016-Jun-26 01:02 UTC

Location: N 40°25' W 003°39'.
View on Google Maps.

See reports from other nearby stations

  
Tides and Currents Weather Stations Pressure Air Temp Water Temp Dewpoint Dewpoint Depression Visibility Wind Speed Wind Dir Waves Ship Positions
date/time (UTC)wind fromknots sea level pressurealtimeterstation pressurevisibilityair tempwater tempwave heightnotes
2016-Jun-25 23:50 315 4 gusting 7 21.7
2016-Jun-25 23:40 315 0 gusting 6 21.1
2016-Jun-25 23:30 090 1 gusting 3 21.7
2016-Jun-25 23:18 270 2 gusting 6 22.2
2016-Jun-25 23:08 090 22.8
2016-Jun-25 22:58 090 6 gusting 13 23.9
2016-Jun-25 22:37 270 2 gusting 6 24.4
2016-Jun-25 22:27 25.0
2016-Jun-25 22:17 315 1 gusting 4 24.4
2016-Jun-25 22:07 25.0
2016-Jun-25 21:57 292 2 gusting 10 25.6
2016-Jun-25 21:46 26.1
2016-Jun-25 21:36 270 3 gusting 6 25.6
2016-Jun-25 21:26 270 4 gusting 6 26.7
2016-Jun-25 21:16 26.7
2016-Jun-25 21:06 315 5 gusting 10 27.2
2016-Jun-25 20:56 270 6 gusting 13 27.8
2016-Jun-25 20:46 270 4 gusting 7 28.9
2016-Jun-25 20:36 28.9
2016-Jun-25 20:26 29.4
2016-Jun-25 20:16 30.0
2016-Jun-25 20:05 30.6
2016-Jun-25 19:55 31.1
2016-Jun-25 19:45 31.7
2016-Jun-25 19:35 33.3
2016-Jun-25 19:25 33.9
2016-Jun-25 19:14 33.9
2016-Jun-25 19:04 34.4
2016-Jun-25 18:54 225 2 gusting 5 34.4
2016-Jun-25 18:43 225 35.0
2016-Jun-25 18:33 315 1 gusting 2 34.4
2016-Jun-25 18:23 180 0 gusting 2 35.6
2016-Jun-25 18:13 225 2 gusting 5 35.0
2016-Jun-25 18:03 225 4 gusting 6 34.4
2016-Jun-25 17:53 315 36.1
2016-Jun-25 17:43 225 0 gusting 2 35.6
2016-Jun-25 17:33 180 1 gusting 5 35.6
2016-Jun-25 17:23 315 0 gusting 4 36.1
2016-Jun-25 17:13 180 0 gusting 5 35.6
2016-Jun-25 17:03 225 1 gusting 3 35.0
2016-Jun-25 16:53 180 0 gusting 5 35.0
2016-Jun-25 16:43 225 4 gusting 5 35.0
2016-Jun-25 16:33 225 0 gusting 3 35.0
2016-Jun-25 16:23 225 3 gusting 6 35.0
2016-Jun-25 16:13 180 2 gusting 6 35.6
2016-Jun-25 16:04 292 37.2
2016-Jun-25 15:53 36.1
2016-Jun-25 15:43 270 1 gusting 3 36.1
2016-Jun-25 15:32 315 0 gusting 2 35.6
2016-Jun-25 15:22 180 35.0
2016-Jun-25 15:12 225 2 gusting 5 33.3
2016-Jun-25 15:02 270 2 gusting 6 34.4
2016-Jun-25 14:52 180 2 gusting 5 34.4
2016-Jun-25 14:42 180 2 gusting 7 33.9
2016-Jun-25 14:32 225 1 gusting 2 33.9
2016-Jun-25 14:22 315 2 gusting 4 33.9
2016-Jun-25 14:12 270 1 gusting 3 35.0
2016-Jun-25 14:02 225 3 gusting 6 34.4
2016-Jun-25 13:52 180 0 gusting 2 35.0
2016-Jun-25 13:42 270 2 gusting 6 34.4
2016-Jun-25 13:32 225 2 gusting 5 36.1
2016-Jun-25 13:22 35.0
2016-Jun-25 13:12 35.6
2016-Jun-25 13:02 35.0
2016-Jun-25 12:51 180 3 gusting 5 35.6
2016-Jun-25 12:41 135 0 gusting 2 34.4
2016-Jun-25 12:31 180 6 gusting 10 35.0
2016-Jun-25 12:21 34.4
2016-Jun-25 12:01 315 6 gusting 9 32.8
2016-Jun-25 11:51 135 1 gusting 6 32.8
2016-Jun-25 11:41 135 3 gusting 7 33.9
2016-Jun-25 11:30 315 0 gusting 2 33.3
2016-Jun-25 11:20 32.8
2016-Jun-25 11:10 225 32.2
2016-Jun-25 11:00 315 32.8
2016-Jun-25 10:40 32.8
2016-Jun-25 10:29 090 0 gusting 2 32.8
2016-Jun-25 10:19 32.2
2016-Jun-25 10:09 225 30.6
2016-Jun-25 09:59 315 1 gusting 4 30.6
2016-Jun-25 09:49 225 0 gusting 2 31.1
2016-Jun-25 09:39 270 0 gusting 2 29.4
2016-Jun-25 09:29 270 2 gusting 5 28.9
2016-Jun-25 09:19 180 2 gusting 4 30.0
2016-Jun-25 09:09 315 1 gusting 3 29.4
2016-Jun-25 08:59 270 28.9
2016-Jun-25 08:49 135 2 gusting 7 28.3
2016-Jun-25 08:39 315 0 gusting 4 27.8
2016-Jun-25 08:29 27.2
2016-Jun-25 08:19 315 1 gusting 4 26.1
2016-Jun-25 08:09 25.0
2016-Jun-25 07:59 067 0 gusting 3 25.6
2016-Jun-25 07:49 315 2 gusting 4 25.0
2016-Jun-25 07:39 315 2 gusting 4 24.4
2016-Jun-25 07:29 23.9
2016-Jun-25 07:19 23.3
2016-Jun-25 07:08 22.8
2016-Jun-25 06:58 315 22.8
2016-Jun-25 06:48 315 3 gusting 6 22.2
2016-Jun-25 06:37 270 1 gusting 6 22.2
2016-Jun-25 06:27 112 2 gusting 7 21.7
2016-Jun-25 06:17 292 1 gusting 5 21.1
2016-Jun-25 06:07 090 0 gusting 2 20.6
2016-Jun-25 05:57 20.6
2016-Jun-25 05:46 090 1 gusting 3 21.1
2016-Jun-25 05:36 315 3 gusting 9 19.4
2016-Jun-25 05:26 090 1 gusting 5 19.4
2016-Jun-25 05:16 19.4
2016-Jun-25 05:06 20.0
2016-Jun-25 04:56 090 5 gusting 12 20.0
2016-Jun-25 04:45 20.0
2016-Jun-25 04:35 315 1 gusting 4 20.0
2016-Jun-25 04:25 20.0
2016-Jun-25 04:14 090 3 gusting 7 20.6
2016-Jun-25 04:04 270 0 gusting 2 20.0
2016-Jun-25 03:54 315 0 gusting 2 20.0
2016-Jun-25 03:44 315 3 gusting 7 21.1
2016-Jun-25 03:34 20.0
2016-Jun-25 03:24 090 0 gusting 2 21.1
2016-Jun-25 03:14 270 3 gusting 7 21.1
2016-Jun-25 03:04 315 2 gusting 5 21.1
2016-Jun-25 02:54 315 0 gusting 3 21.1
2016-Jun-25 02:44 270 0 gusting 4 21.1
2016-Jun-25 02:34 180 0 gusting 5 21.1
2016-Jun-25 02:24 315 22.2
2016-Jun-25 02:13 315 2 gusting 6 21.1
2016-Jun-25 02:03 225 1 gusting 3 22.8
2016-Jun-25 01:53 112 0 gusting 4 22.8
2016-Jun-25 01:42 270 5 gusting 9 22.2
2016-Jun-25 01:32 315 2 gusting 8 23.3
2016-Jun-25 01:21 225 0 gusting 2 23.3
2016-Jun-25 01:11 270 0 gusting 1 23.9
2016-Jun-25 01:01 23.9
2016-Jun-25 00:51 135 23.9
2016-Jun-25 00:41 315 23.9
2016-Jun-25 00:31 23.9
2016-Jun-25 00:21 23.9
2016-Jun-25 00:11 270 25.0
2016-Jun-25 00:01 315 24.4
2016-Jun-24 23:51 25.6
2016-Jun-24 23:41 25.0
2016-Jun-24 23:30 270 1 gusting 2 25.0
2016-Jun-24 23:20 26.1
2016-Jun-24 23:10 270 0 gusting 4 26.1
2016-Jun-24 23:00 135 26.7
2016-Jun-24 22:50 26.7
2016-Jun-24 22:40 315 27.2
2016-Jun-24 22:29 315 2 gusting 3 27.2
2016-Jun-24 22:19 270 2 gusting 4 27.8
2016-Jun-24 22:09 315 2 gusting 3 27.8
2016-Jun-24 21:59 270 2 gusting 5 27.2
2016-Jun-24 21:49 315 4 gusting 7 28.3
2016-Jun-24 21:39 315 2 gusting 5 28.9
2016-Jun-24 21:29 315 0 gusting 3 28.9
2016-Jun-24 21:19 315 2 gusting 2 28.3
2016-Jun-24 21:08 315 0 gusting 3 28.9
2016-Jun-24 20:58 270 27.8
2016-Jun-24 20:48 29.4
2016-Jun-24 20:38 270 4 gusting 6 29.4
2016-Jun-24 20:28 225 28.9
2016-Jun-24 20:18 315 2 gusting 4 29.4
2016-Jun-24 20:08 315 29.4
2016-Jun-24 19:58 270 2 gusting 9 30.0
2016-Jun-24 19:48 270 2 gusting 7 30.0
2016-Jun-24 19:37 270 0 gusting 2 30.6
2016-Jun-24 19:27 270 1 gusting 3 31.1
2016-Jun-24 19:17 225 2 gusting 7 31.7
2016-Jun-24 19:07 315 5 gusting 7 32.2
2016-Jun-24 18:57 225 5 gusting 9 32.2
2016-Jun-24 18:47 270 3 gusting 7 32.2
2016-Jun-24 18:37 225 2 gusting 3 32.2
2016-Jun-24 18:27 315 5 gusting 10 33.3
2016-Jun-24 18:17 315 5 gusting 9 32.2
2016-Jun-24 18:07 270 5 gusting 8 33.3
2016-Jun-24 17:57 270 2 gusting 5 33.3
2016-Jun-24 17:47 315 6 gusting 12 34.4
2016-Jun-24 17:37 270 4 gusting 10 33.9
2016-Jun-24 17:27 225 4 gusting 8 35.0
2016-Jun-24 17:17 315 5 gusting 11 33.9
2016-Jun-24 17:07 270 7 gusting 13 34.4
2016-Jun-24 16:57 270 6 gusting 13 35.0
2016-Jun-24 16:47 315 7 gusting 13 35.6
2016-Jun-24 16:37 315 2 gusting 5 35.6
2016-Jun-24 16:27 270 0 gusting 5 35.0
2016-Jun-24 16:17 315 7 gusting 16 35.6
2016-Jun-24 16:07 180 5 gusting 13 35.0
2016-Jun-24 15:57 315 2 gusting 4 35.6
2016-Jun-24 15:47 225 5 gusting 12 35.0
2016-Jun-24 15:36 225 2 gusting 5 35.6
2016-Jun-24 15:26 225 3 gusting 7 35.0
2016-Jun-24 15:16 225 6 gusting 11 34.4
2016-Jun-24 15:06 225 2 gusting 6 35.6
2016-Jun-24 14:56 180 3 gusting 7 35.6
2016-Jun-24 14:45 270 5 gusting 12 35.0
2016-Jun-24 14:35 225 10 gusting 17 35.6
2016-Jun-24 14:25 180 5 gusting 7 35.6
2016-Jun-24 14:15 180 5 gusting 10 35.6
2016-Jun-24 14:05 135 6 gusting 11 35.6
2016-Jun-24 13:55 270 3 gusting 7 35.6
2016-Jun-24 13:45 225 6 gusting 10 35.0
2016-Jun-24 13:35 204 2 gusting 5 35.0
2016-Jun-24 13:25 225 0 gusting 3 36.1
2016-Jun-24 13:15 202 1 gusting 8 35.0
2016-Jun-24 13:05 180 1 gusting 3 33.9
2016-Jun-24 12:54 180 2 gusting 5 35.0
2016-Jun-24 12:44 202 2 gusting 4 33.9
2016-Jun-24 12:34 225 5 gusting 13 35.0
2016-Jun-24 12:24 270 8 gusting 13 34.4
2016-Jun-24 12:14 33.9
2016-Jun-24 12:03 225 4 gusting 6 34.4
2016-Jun-24 11:53 225 2 gusting 5 36.1
2016-Jun-24 11:43 315 0 gusting 2 35.0
2016-Jun-24 11:33 180 2 gusting 5 35.0
2016-Jun-24 11:23 33.9
2016-Jun-24 11:13 067 2 gusting 6 33.3
2016-Jun-24 11:03 225 4 gusting 6 33.9
2016-Jun-24 10:53 180 5 gusting 7 34.4
2016-Jun-24 10:43 270 0 gusting 3 32.8
2016-Jun-24 10:33 180 2 gusting 5 31.7
2016-Jun-24 10:23 225 4 gusting 6 32.2
2016-Jun-24 10:12 135 33.9
2016-Jun-24 10:02 225 33.3
2016-Jun-24 09:53 225 2 gusting 5 33.9
2016-Jun-24 09:42 270 32.8
2016-Jun-24 09:32 33.9
2016-Jun-24 09:22 33.9
2016-Jun-24 09:12 32.8
2016-Jun-24 09:02 31.7
2016-Jun-24 08:52 180 1 gusting 2 32.2
2016-Jun-24 08:42 32.8
2016-Jun-24 08:32 32.8
2016-Jun-24 08:22 31.1
2016-Jun-24 08:12 31.1
2016-Jun-24 08:02 30.6
2016-Jun-24 07:51 270 29.4
2016-Jun-24 07:41 28.9
2016-Jun-24 07:31 27.8
2016-Jun-24 07:21 27.8
2016-Jun-24 07:11 090 0 gusting 2 27.8
2016-Jun-24 07:01 26.7
2016-Jun-24 06:50 25.6
2016-Jun-24 06:40 26.1
2016-Jun-24 06:30 25.0
2016-Jun-24 06:19 135 23.9
2016-Jun-24 06:09 315 2 gusting 3 23.9
2016-Jun-24 05:59 22.8
2016-Jun-24 05:49 22.8
2016-Jun-24 05:39 21.7
2016-Jun-24 05:28 090 21.1
2016-Jun-24 05:18 090 0 gusting 3 21.1
2016-Jun-24 05:07 21.1
2016-Jun-24 04:57 090 20.6
2016-Jun-24 04:47 180 1 gusting 3 21.1
2016-Jun-24 04:37 21.1
2016-Jun-24 04:27 21.1
2016-Jun-24 04:17 20.6
2016-Jun-24 04:05 21.1
2016-Jun-24 03:55 21.1
2016-Jun-24 03:45 225 21.1
2016-Jun-24 03:34 21.7
2016-Jun-24 03:24 22.2
2016-Jun-24 03:14 22.2
2016-Jun-24 03:02 22.8
2016-Jun-24 02:52 22.8
2016-Jun-24 02:42 22.8
2016-Jun-24 02:32 22.8
2016-Jun-24 02:22 22.8
2016-Jun-24 02:11 22.8
2016-Jun-24 02:01 22.8
2016-Jun-24 01:51 23.3
2016-Jun-24 01:41 23.3
2016-Jun-24 01:31 23.3
2016-Jun-24 01:21 23.3
2016-Jun-24 01:10 23.9
2016-Jun-24 01:00 23.9